Time;durP1;ratioP1;P1;durP2;ratioP2;P2;SDS_P1;SDS_P2;PMS_P1;PMS_P2;Temp;Humidity;BMP_temperature;BMP_pressure;BME280_temperature;BME280_humidity;BME280_pressure;Samples;Min_cycle;Max_cycle;Signal;HPM_P1;HPM_P2
2022/01/10 00:00:39;;;;;;;16.98;7.78;;;;;;;-0.89;100.00;101009.59;5070717;28;20487;-52
2022/01/10 00:03:08;;;;;;;19.05;7.25;;;;;;;-0.88;100.00;101016.47;5071171;28;20060;-50
2022/01/10 00:05:36;;;;;;;22.52;10.73;;;;;;;-0.93;100.00;101012.28;5074560;28;20044;-52
2022/01/10 00:08:05;;;;;;;18.88;9.80;;;;;;;-0.96;100.00;101018.31;5073408;28;20098;-52
2022/01/10 00:10:33;;;;;;;19.77;9.05;;;;;;;-0.93;100.00;101023.44;5070313;28;20083;-50
2022/01/10 00:13:01;;;;;;;14.32;7.88;;;;;;;-0.91;100.00;101026.88;5071726;28;20049;-52
2022/01/10 00:15:30;;;;;;;17.25;8.65;;;;;;;-0.98;100.00;101034.72;5074423;28;20044;-51
2022/01/10 00:17:59;;;;;;;18.58;8.35;;;;;;;-1.04;100.00;101036.53;5074173;28;20056;-53
2022/01/10 00:20:27;;;;;;;17.65;8.35;;;;;;;-1.09;100.00;101040.91;5074297;28;20047;-53
2022/01/10 00:22:55;;;;;;;18.65;8.85;;;;;;;-1.05;100.00;101039.09;5074002;28;20165;-52
2022/01/10 00:25:24;;;;;;;20.00;8.68;;;;;;;-1.07;100.00;101041.72;5073936;28;20102;-54
2022/01/10 00:27:53;;;;;;;19.42;9.05;;;;;;;-1.08;100.00;101045.19;5074024;28;20056;-52
2022/01/10 00:30:23;;;;;;;23.05;9.15;;;;;;;-1.16;100.00;101041.84;5073696;28;20044;-55
2022/01/10 00:32:52;;;;;;;14.82;8.80;;;;;;;-1.14;100.00;101049.59;5074161;28;20388;-55
2022/01/10 00:35:22;;;;;;;17.77;8.93;;;;;;;-1.11;100.00;101054.69;5073963;28;20044;-53
2022/01/10 00:37:51;;;;;;;20.42;9.07;;;;;;;-1.14;100.00;101059.91;5073577;28;20068;-55
2022/01/10 00:40:20;;;;;;;19.80;8.95;;;;;;;-1.11;100.00;101046.94;5073787;28;20059;-55
2022/01/10 00:42:54;;;;;;;20.55;9.65;;;;;;;-1.16;100.00;101056.47;5073638;28;20456;-56
2022/01/10 00:45:26;;;;;;;16.08;8.48;;;;;;;-1.20;100.00;101061.69;5073766;28;20064;-57
2022/01/10 00:47:55;;;;;;;19.35;9.30;;;;;;;-1.22;100.00;101078.06;5073814;28;20438;-56
2022/01/10 00:50:25;;;;;;;15.15;8.52;;;;;;;-1.22;100.00;101080.66;5073057;28;20109;-55
2022/01/10 00:52:54;;;;;;;17.23;8.20;;;;;;;-1.22;100.00;101086.66;5073068;28;20123;-55
2022/01/10 00:55:22;;;;;;;18.38;8.93;;;;;;;-1.17;100.00;101088.31;5073246;28;20555;-56
2022/01/10 00:57:50;;;;;;;20.23;8.30;;;;;;;-1.19;100.00;101088.34;5073507;28;20040;-55
2022/01/10 01:00:19;;;;;;;20.98;8.57;;;;;;;-1.16;100.00;101092.63;5073190;28;20095;-56
2022/01/10 01:02:47;;;;;;;15.73;7.93;;;;;;;-1.25;100.00;101096.19;5073202;28;20110;-55
2022/01/10 01:05:20;;;;;;;20.85;9.27;;;;;;;-1.32;100.00;101105.72;5073357;28;20049;-56
2022/01/10 01:07:50;;;;;;;23.27;9.10;;;;;;;-1.32;100.00;101115.16;5072400;28;20045;-55
2022/01/10 01:10:57;;;;;;;16.80;7.45;;;;;;;-1.34;100.00;101116.94;5073229;28;20055;-55
2022/01/10 01:13:30;;;;;;;17.30;8.05;;;;;;;-1.39;100.00;101123.00;5071808;28;20045;-54
2022/01/10 01:16:13;;;;;;;23.63;9.18;;;;;;;-1.29;100.00;101128.06;5073098;28;20483;-54
2022/01/10 01:19:06;;;;;;;;;;;;;;;-1.37;100.00;101128.97;5073639;28;20465;-55
2022/01/10 01:24:21;;;;;;;14.77;7.35;;;;;;;-1.41;100.00;101139.38;5072907;28;20055;-54
2022/01/10 01:26:51;;;;;;;14.05;8.15;;;;;;;-1.44;100.00;101149.72;5072973;28;20052;-56
2022/01/10 01:29:22;;;;;;;18.27;8.48;;;;;;;-1.41;100.00;101150.53;5072860;28;20056;-54
2022/01/10 01:31:50;;;;;;;19.38;8.02;;;;;;;-1.46;100.00;101154.03;5073226;28;20052;-56
2022/01/10 01:34:20;;;;;;;15.40;8.00;;;;;;;-1.48;100.00;101153.22;5072907;28;20052;-56
2022/01/10 01:36:52;;;;;;;19.13;8.93;;;;;;;-1.46;100.00;101156.59;5072748;28;20040;-55
2022/01/10 01:39:25;;;;;;;16.15;7.43;;;;;;;-1.43;100.00;101170.34;5072998;28;20406;-55
2022/01/10 01:41:59;;;;;;;19.23;8.40;;;;;;;-1.39;100.00;101168.56;5072759;28;20098;-54
2022/01/10 01:44:28;;;;;;;18.23;7.78;;;;;;;-1.48;100.00;101172.13;5072920;28;20045;-56
2022/01/10 01:46:56;;;;;;;17.85;7.63;;;;;;;-1.51;100.00;101168.69;5072669;28;20490;-55
2022/01/10 01:49:24;;;;;;;15.85;8.35;;;;;;;-1.55;100.00;101179.06;5072169;28;20376;-55
2022/01/10 01:51:52;;;;;;;18.50;8.52;;;;;;;-1.58;100.00;101184.25;5072261;28;20471;-53
2022/01/10 01:54:22;;;;;;;20.27;9.27;;;;;;;-1.55;100.00;101191.09;5072534;28;20048;-55
2022/01/10 01:56:52;;;;;;;17.00;8.13;;;;;;;-1.54;100.00;101196.25;5072426;28;20067;-53
2022/01/10 01:59:21;;;;;;;17.80;8.68;;;;;;;-1.54;100.00;101193.66;5072474;28;20049;-56
2022/01/10 02:01:49;;;;;;;17.88;8.18;;;;;;;-1.58;100.00;101194.56;5072330;28;20449;-56
2022/01/10 02:04:17;;;;;;;18.50;8.45;;;;;;;-1.62;100.00;101199.75;5072000;28;20082;-55
2022/01/10 02:06:45;;;;;;;16.92;8.40;;;;;;;-1.60;100.00;101203.19;5071798;28;20499;-54
2022/01/10 02:09:14;;;;;;;13.23;7.45;;;;;;;-1.62;100.00;101202.31;5072346;28;20045;-55
2022/01/10 02:11:44;;;;;;;15.70;8.68;;;;;;;-1.66;100.00;101210.97;5072426;28;20051;-56
2022/01/10 02:14:12;;;;;;;14.82;8.13;;;;;;;-1.70;100.00;101213.56;5072649;28;20426;-54
2022/01/10 02:16:43;;;;;;;17.13;8.52;;;;;;;-1.73;100.00;101215.34;5072244;28;20048;-53
2022/01/10 02:19:12;;;;;;;16.10;8.03;;;;;;;-1.74;100.00;101222.22;5072328;28;20496;-56
2022/01/10 02:21:41;;;;;;;17.58;9.30;;;;;;;-1.74;100.00;101214.47;5072229;28;20040;-56
2022/01/10 02:24:10;;;;;;;20.73;9.68;;;;;;;-1.75;100.00;101227.38;5072219;28;20045;-55
2022/01/10 02:26:39;;;;;;;18.77;8.82;;;;;;;-1.74;100.00;101223.94;5072297;28;20090;-54
2022/01/10 02:29:08;;;;;;;20.30;9.05;;;;;;;-1.70;100.00;101223.06;5072212;28;20380;-54
2022/01/10 02:31:38;;;;;;;20.08;8.13;;;;;;;-1.73;100.00;101236.81;5072280;28;20044;-55
2022/01/10 02:34:06;;;;;;;16.42;9.02;;;;;;;-1.77;100.00;101237.72;5071846;28;20055;-53
2022/01/10 02:36:35;;;;;;;18.60;8.32;;;;;;;-1.80;100.00;101242.03;5071699;28;20450;-53
2022/01/10 02:39:08;;;;;;;18.70;9.82;;;;;;;-1.74;100.00;101239.41;5071984;28;20047;-55
2022/01/10 02:41:38;;;;;;;15.15;9.88;;;;;;;-1.79;100.00;101254.06;5070655;28;20056;-55
2022/01/10 02:44:09;;;;;;;16.33;8.45;;;;;;;-1.79;100.00;101254.06;5071948;28;20049;-55
2022/01/10 02:46:39;;;;;;;15.85;8.38;;;;;;;-1.77;100.00;101257.47;5072158;28;20049;-54
2022/01/10 02:49:11;;;;;;;17.63;8.23;;;;;;;-1.85;100.00;101265.28;5072086;28;20052;-55
2022/01/10 02:51:40;;;;;;;20.73;8.80;;;;;;;-1.81;100.00;101271.25;5072119;28;20049;-54
2022/01/10 02:54:12;;;;;;;16.15;8.60;;;;;;;-1.82;100.00;101265.25;5071959;28;20127;-55
2022/01/10 02:56:45;;;;;;;19.08;8.85;;;;;;;-1.91;100.00;101265.31;5071983;28;20049;-56
2022/01/10 02:59:14;;;;;;;16.23;8.63;;;;;;;-1.91;100.00;101275.63;5071830;28;20514;-57
2022/01/10 03:01:42;;;;;;;21.17;8.48;;;;;;;-1.98;100.00;101282.53;5071498;28;20056;-53
2022/01/10 03:04:11;;;;;;;14.65;8.27;;;;;;;-1.93;100.00;101285.94;5071485;28;20045;-55
2022/01/10 03:06:39;;;;;;;17.63;9.32;;;;;;;-1.98;100.00;101300.59;5071894;28;20075;-54
2022/01/10 03:09:09;;;;;;;15.38;9.20;;;;;;;-2.02;100.00;101306.63;5071805;28;20044;-54
2022/01/10 03:11:39;;;;;;;13.88;8.68;;;;;;;-1.97;100.00;101309.19;5071590;28;20127;-56
2022/01/10 03:14:07;;;;;;;21.08;9.00;;;;;;;-1.99;100.00;101316.94;5071577;28;20051;-55
2022/01/10 03:16:36;;;;;;;16.02;9.00;;;;;;;-1.96;100.00;101319.50;5070262;28;20068;-56
2022/01/10 03:19:04;;;;;;;16.17;9.30;;;;;;;-1.92;100.00;101321.19;5071636;28;20048;-57
2022/01/10 03:21:33;;;;;;;15.10;9.32;;;;;;;-1.97;100.00;101328.09;5070998;28;20072;-55
2022/01/10 03:24:01;;;;;;;19.65;8.68;;;;;;;-2.08;100.00;101333.28;5071146;28;20052;-56
2022/01/10 03:26:32;;;;;;;20.42;9.60;;;;;;;-2.05;100.00;101337.59;5071550;28;20399;-55
2022/01/10 03:29:00;;;;;;;19.45;10.48;;;;;;;-2.11;100.00;101327.31;5071581;28;20040;-55
2022/01/10 03:31:28;;;;;;;19.85;10.63;;;;;;;-2.00;100.00;101345.28;5073242;28;20102;-54
2022/01/10 03:33:56;;;;;;;16.70;9.32;;;;;;;-2.00;100.00;101351.31;5074025;28;20479;-55
2022/01/10 03:36:25;;;;;;;19.42;9.98;;;;;;;-2.06;100.00;101356.47;5075190;28;20075;-53
2022/01/10 03:38:53;;;;;;;16.58;9.15;;;;;;;-2.07;100.00;101353.06;5075359;28;20074;-54
2022/01/10 03:41:21;;;;;;;15.63;9.55;;;;;;;-2.02;100.00;101365.91;5074925;28;20109;-54
2022/01/10 03:43:50;;;;;;;20.30;9.60;;;;;;;-2.09;100.00;101364.25;5074821;28;20037;-54
2022/01/10 03:46:18;;;;;;;16.63;9.75;;;;;;;-2.17;100.00;101364.25;5074954;28;20052;-54
2022/01/10 03:48:47;;;;;;;19.45;9.95;;;;;;;-2.18;100.00;101372.00;5074819;28;20487;-55
2022/01/10 03:51:15;;;;;;;19.80;9.68;;;;;;;-2.14;100.00;101379.75;5074917;28;20499;-55
2022/01/10 03:53:43;;;;;;;18.38;9.25;;;;;;;-2.09;100.00;101385.72;5075112;28;20072;-54
2022/01/10 03:56:11;;;;;;;20.63;9.25;;;;;;;-2.14;100.00;101381.44;5074980;28;20407;-53
2022/01/10 03:58:39;;;;;;;17.77;9.80;;;;;;;-2.12;100.00;101390.03;5074457;28;20106;-54
2022/01/10 04:01:09;;;;;;;19.13;10.02;;;;;;;-2.13;100.00;101383.16;5074395;28;20135;-55
2022/01/10 04:03:38;;;;;;;19.75;10.60;;;;;;;-2.12;100.00;101390.03;5074647;28;20502;-55
2022/01/10 04:06:07;;;;;;;18.38;10.32;;;;;;;-2.14;100.00;101397.78;5074736;28;20085;-55
2022/01/10 04:08:35;;;;;;;21.55;9.88;;;;;;;-2.13;100.00;101402.06;5074554;28;20356;-53
2022/01/10 04:11:04;;;;;;;18.13;9.98;;;;;;;-2.12;100.00;101403.78;5074340;28;20041;-53
2022/01/10 04:13:32;;;;;;;19.27;9.35;;;;;;;-2.06;100.00;101410.63;5074259;28;20048;-56
2022/01/10 04:16:00;;;;;;;17.60;9.52;;;;;;;-2.07;100.00;101407.19;5073921;28;20075;-54
2022/01/10 04:18:29;;;;;;;21.52;10.85;;;;;;;-2.07;100.00;101414.09;5074453;28;20377;-52
2022/01/10 04:20:58;;;;;;;19.25;10.15;;;;;;;-2.05;100.00;101418.34;5074226;28;20044;-56
2022/01/10 04:23:26;;;;;;;15.68;9.40;;;;;;;-2.08;100.00;101427.84;5074103;28;20036;-54
2022/01/10 04:25:55;;;;;;;23.35;9.95;;;;;;;-2.11;100.00;101431.28;5073380;28;20045;-54
2022/01/10 04:28:23;;;;;;;21.88;10.43;;;;;;;-2.09;100.00;101444.16;5074022;28;20059;-53
2022/01/10 04:30:51;;;;;;;20.80;10.18;;;;;;;-2.12;100.00;101444.16;5074168;28;20420;-55
2022/01/10 04:33:20;;;;;;;17.52;10.38;;;;;;;-2.06;100.00;101446.72;5074196;28;20052;-55
2022/01/10 04:35:50;;;;;;;19.75;10.20;;;;;;;-2.06;100.00;101460.47;5074064;28;20056;-55
2022/01/10 04:38:18;;;;;;;17.60;10.70;;;;;;;-2.05;100.00;101456.16;5073956;28;20507;-55
2022/01/10 04:40:46;;;;;;;23.58;12.70;;;;;;;-2.11;100.00;101467.34;5074086;28;20048;-54
2022/01/10 04:43:14;;;;;;;20.33;12.18;;;;;;;-2.02;100.00;101470.78;5073611;28;20047;-52
2022/01/10 04:45:43;;;;;;;24.02;11.82;;;;;;;-2.00;100.00;101471.59;5073607;28;20063;-55
2022/01/10 04:48:11;;;;;;;19.48;11.77;;;;;;;-2.03;100.00;101477.66;5073743;28;20040;-55
2022/01/10 04:53:23;;;;;;;19.33;11.27;;;;;;;-2.02;100.00;101486.25;5064730;28;20044;-53
2022/01/10 04:55:51;;;;;;;21.67;12.30;;;;;;;-2.03;100.00;101493.13;5073547;28;20131;-55
2022/01/10 04:58:19;;;;;;;26.20;12.45;;;;;;;-2.07;100.00;101502.56;5073499;28;20048;-53
2022/01/10 05:00:47;;;;;;;26.00;12.80;;;;;;;-2.05;100.00;101498.25;5073567;28;20070;-54
2022/01/10 05:03:17;;;;;;;19.77;11.68;;;;;;;-2.00;100.00;101505.13;5073395;28;20143;-53
2022/01/10 05:05:45;;;;;;;24.50;12.90;;;;;;;-1.98;100.00;101509.41;5073141;28;20052;-53
2022/01/10 05:08:13;;;;;;;16.50;11.20;;;;;;;-1.98;100.00;101522.31;5072252;28;20494;-55
2022/01/10 05:10:44;;;;;;;24.23;12.48;;;;;;;-1.93;100.00;101515.44;5073438;28;20967;-55
2022/01/10 05:13:12;;;;;;;19.75;11.88;;;;;;;-1.90;100.00;101525.72;5073355;28;20056;-55
2022/01/10 05:15:42;;;;;;;21.80;12.82;;;;;;;-1.87;100.00;101533.47;5071842;28;20040;-55
2022/01/10 05:18:10;;;;;;;25.35;11.50;;;;;;;-1.81;100.00;101537.75;5073118;28;20041;-56
2022/01/10 05:20:38;;;;;;;22.77;11.23;;;;;;;-1.78;100.00;101548.06;5073159;28;20075;-54
2022/01/10 05:23:06;;;;;;;22.45;11.30;;;;;;;-1.77;100.00;101548.91;5073327;28;20074;-54
2022/01/10 05:25:39;;;;;;;21.27;10.80;;;;;;;-1.72;100.00;101549.75;5072779;28;20037;-54
2022/01/10 05:28:11;;;;;;;20.05;11.05;;;;;;;-1.70;100.00;101555.78;5073107;28;20106;-55
2022/01/10 05:30:41;;;;;;;21.85;11.13;;;;;;;-1.66;100.00;101556.63;5071401;28;20530;-51
2022/01/10 05:33:09;;;;;;;20.13;11.18;;;;;;;-1.66;100.00;101565.22;5071673;28;20052;-54
2022/01/10 05:35:39;;;;;;;19.55;10.65;;;;;;;-1.61;100.00;101580.69;5073041;28;20503;-54
2022/01/10 05:38:07;;;;;;;22.63;10.73;;;;;;;-1.59;100.00;101577.25;5072863;28;20052;-51
2022/01/10 05:40:35;;;;;;;21.48;11.82;;;;;;;-1.57;100.00;101577.22;5069857;28;20055;-50
2022/01/10 05:43:04;;;;;;;22.90;12.32;;;;;;;-1.58;100.00;101578.09;5069640;28;20106;-51
2022/01/10 05:45:33;;;;;;;15.20;10.45;;;;;;;-1.60;100.00;101583.25;5072636;28;20102;-49
2022/01/10 05:48:08;;;;;;;20.58;11.80;;;;;;;-1.59;100.00;101595.31;5072822;28;20041;-50
2022/01/10 05:50:37;;;;;;;21.33;11.18;;;;;;;-1.54;100.00;101592.69;5072762;28;20052;-49
2022/01/10 05:53:05;;;;;;;21.40;11.27;;;;;;;-1.49;100.00;101595.28;5072230;28;20048;-51
2022/01/10 05:55:35;;;;;;;23.65;11.77;;;;;;;-1.45;100.00;101597.84;5068619;28;20043;-51
2022/01/10 05:58:04;;;;;;;18.75;10.57;;;;;;;-1.43;100.00;101611.59;5069396;28;20063;-51
2022/01/10 06:00:34;;;;;;;20.13;10.80;;;;;;;-1.39;100.00;101610.72;5072486;28;20057;-51
2022/01/10 06:03:03;;;;;;;16.63;11.02;;;;;;;-1.35;100.00;101614.13;5072066;28;20064;-52
2022/01/10 06:05:32;;;;;;;22.73;12.30;;;;;;;-1.28;100.00;101614.97;5070297;28;20052;-49
2022/01/10 06:08:02;;;;;;;20.92;12.00;;;;;;;-1.29;100.00;101608.97;5068784;28;20049;-53
2022/01/10 06:10:31;;;;;;;20.42;11.52;;;;;;;-1.27;100.00;101617.59;5072071;28;20507;-53
2022/01/10 06:13:01;;;;;;;21.63;11.15;;;;;;;-1.27;100.00;101617.59;5072387;28;20109;-52
2022/01/10 06:15:29;;;;;;;16.05;10.95;;;;;;;-1.24;100.00;101634.75;5069749;28;20175;-52
2022/01/10 06:17:59;;;;;;;27.23;12.73;;;;;;;-1.23;100.00;101639.06;5068567;28;20048;-51
2022/01/10 06:20:27;;;;;;;21.80;11.77;;;;;;;-1.21;100.00;101645.09;5070178;28;20052;-54
2022/01/10 06:22:55;;;;;;;19.23;11.68;;;;;;;-1.20;100.00;101645.09;5069022;28;20402;-51
2022/01/10 06:25:27;;;;;;;21.85;12.35;;;;;;;-1.16;100.00;101652.81;5069227;28;20040;-53
2022/01/10 06:27:57;;;;;;;21.35;12.18;;;;;;;-1.16;100.00;101664.00;5072419;28;20048;-52
2022/01/10 06:30:25;;;;;;;21.58;11.85;;;;;;;-1.16;100.00;101666.56;5068399;28;20125;-52
2022/01/10 06:32:54;;;;;;;18.98;13.05;;;;;;;-1.16;100.00;101670.88;5068619;28;20055;-51
2022/01/10 06:35:23;;;;;;;21.42;11.30;;;;;;;-1.17;100.00;101675.19;5072108;28;20048;-51
2022/01/10 06:37:51;;;;;;;18.23;11.43;;;;;;;-1.13;100.00;101682.06;5070548;28;20626;-52
2022/01/10 06:40:22;;;;;;;19.98;11.25;;;;;;;-1.12;100.00;101683.75;5068081;28;20052;-52
2022/01/10 06:42:50;;;;;;;19.13;12.52;;;;;;;-1.12;100.00;101685.50;5070128;28;20063;-51
2022/01/10 06:45:19;;;;;;;26.52;12.57;;;;;;;-1.10;100.00;101681.22;5071953;28;20113;-50
2022/01/10 06:47:49;;;;;;;20.27;11.20;;;;;;;-1.13;100.00;101692.41;5071369;28;20059;-49
2022/01/10 06:50:17;;;;;;;24.13;11.95;;;;;;;-1.14;100.00;101700.16;5068444;28;20109;-53
2022/01/10 06:52:47;;;;;;;23.73;13.27;;;;;;;-1.12;100.00;101708.75;5069732;28;20060;-53
2022/01/10 06:55:15;;;;;;;20.58;12.20;;;;;;;-1.11;100.00;101715.63;5071993;28;20037;-53
2022/01/10 06:57:43;;;;;;;23.38;12.15;;;;;;;-1.11;100.00;101729.38;5072097;28;20363;-51
2022/01/10 07:00:12;;;;;;;21.08;12.40;;;;;;;-1.06;100.00;101726.81;5066894;28;20043;-48
2022/01/10 07:02:43;;;;;;;24.23;13.55;;;;;;;-1.07;100.00;101730.25;5068333;28;20126;-49
2022/01/10 07:05:12;;;;;;;24.10;13.15;;;;;;;-1.07;100.00;101732.84;5071797;28;20052;-50
2022/01/10 07:07:40;;;;;;;23.60;13.50;;;;;;;-1.05;100.00;101741.41;5075766;28;20563;-52
2022/01/10 07:10:10;;;;;;;26.92;14.40;;;;;;;-1.02;100.00;101744.00;5075503;28;20048;-53
2022/01/10 07:12:38;;;;;;;22.48;13.85;;;;;;;-1.05;100.00;101750.03;5072481;28;20510;-52
2022/01/10 07:15:07;;;;;;;31.20;13.98;;;;;;;-1.05;100.00;101756.91;5070639;28;20095;-51
2022/01/10 07:17:35;;;;;;;26.55;14.73;;;;;;;-1.03;100.00;101761.22;5074240;28;20059;-53
2022/01/10 07:20:05;;;;;;;25.17;13.60;;;;;;;-1.01;100.00;101768.94;5071783;28;20127;-51
2022/01/10 07:22:33;;;;;;;26.50;14.27;;;;;;;-0.97;100.00;101769.81;5073691;28;20052;-52
2022/01/10 07:25:01;;;;;;;24.08;14.30;;;;;;;-0.97;100.00;101777.56;5075252;28;20037;-50
2022/01/10 07:27:30;;;;;;;23.75;13.73;;;;;;;-1.00;100.00;101788.75;5075172;28;20761;-53
2022/01/10 07:29:59;;;;;;;25.30;14.38;;;;;;;-1.00;100.00;101796.50;5075129;28;20060;-52
2022/01/10 07:32:29;;;;;;;25.35;14.27;;;;;;;-1.03;100.00;101801.69;5074767;28;20040;-51
2022/01/10 07:34:57;;;;;;;24.48;13.75;;;;;;;-1.03;100.00;101805.13;5074716;28;20048;-51
2022/01/10 07:37:25;;;;;;;24.45;14.18;;;;;;;-0.96;100.00;101813.72;5075503;28;20490;-52
2022/01/10 07:39:54;;;;;;;20.10;12.95;;;;;;;-1.00;100.00;101817.16;5071478;28;20044;-52
2022/01/10 07:42:22;;;;;;;24.55;14.18;;;;;;;-0.98;100.00;101820.63;5072700;28;20033;-53
2022/01/10 07:44:51;;;;;;;23.75;14.32;;;;;;;-0.99;100.00;101834.38;5074842;28;20356;-49
2022/01/10 07:47:20;;;;;;;23.08;13.75;;;;;;;-0.98;100.00;101840.41;5074821;28;20049;-48
2022/01/10 07:49:48;;;;;;;26.83;14.30;;;;;;;-0.93;100.00;101836.94;5074928;28;20379;-52
2022/01/10 07:52:16;;;;;;;23.85;14.85;;;;;;;-0.90;100.00;101851.59;5074891;28;20054;-53
2022/01/10 07:54:45;;;;;;;27.38;15.07;;;;;;;-0.89;100.00;101846.41;5070811;28;20082;-52
2022/01/10 07:57:13;;;;;;;25.50;15.02;;;;;;;-0.83;100.00;101855.03;5072005;28;20079;-50
2022/01/10 07:59:43;;;;;;;23.90;14.98;;;;;;;-0.84;100.00;101848.16;5074659;28;20048;-53
2022/01/10 08:02:13;;;;;;;24.67;15.45;;;;;;;-0.84;100.00;101861.06;5074322;28;20064;-53
2022/01/10 08:04:42;;;;;;;28.40;14.20;;;;;;;-0.82;100.00;101865.34;5071587;28;20045;-53
2022/01/10 08:07:10;;;;;;;21.65;13.73;;;;;;;-0.83;100.00;101870.50;5071263;28;20044;-50
2022/01/10 08:09:38;;;;;;;29.27;16.13;;;;;;;-0.82;100.00;101877.41;5074595;28;20047;-52
2022/01/10 08:12:07;;;;;;;22.92;14.65;;;;;;;-0.79;100.00;101879.97;5072841;28;20113;-50
2022/01/10 08:14:35;;;;;;;25.63;15.75;;;;;;;-0.74;100.00;101886.84;5068666;28;20048;-52
2022/01/10 08:17:04;;;;;;;27.17;16.33;;;;;;;-0.62;100.00;101885.13;5072600;28;20051;-51
2022/01/10 08:19:34;;;;;;;26.33;15.90;;;;;;;-0.52;100.00;101894.56;5074231;28;20165;-48
2022/01/10 08:22:03;;;;;;;25.92;16.00;;;;;;;-0.35;100.00;101894.56;5074293;28;20049;-53
2022/01/10 08:24:32;;;;;;;30.45;16.50;;;;;;;-0.22;100.00;101903.13;5072515;28;20074;-52
2022/01/10 08:27:01;;;;;;;25.17;17.23;;;;;;;-0.20;100.00;101904.84;5070589;28;20507;-51
2022/01/10 08:29:29;;;;;;;29.67;15.73;;;;;;;-0.22;100.00;101905.69;5072769;28;20047;-53
2022/01/10 08:31:57;;;;;;;28.30;16.02;;;;;;;-0.15;100.00;101898.78;5073999;28;20052;-50
2022/01/10 08:34:26;;;;;;;26.00;15.90;;;;;;;-0.09;100.00;101924.66;5074096;28;20128;-52
2022/01/10 08:36:57;;;;;;;29.08;16.48;;;;;;;-0.16;100.00;101926.38;5073883;28;20353;-53
2022/01/10 08:39:25;;;;;;;25.77;16.20;;;;;;;-0.18;100.00;101936.75;5073661;28;20056;-52
2022/01/10 08:41:53;;;;;;;28.35;16.45;;;;;;;-0.08;100.00;101940.16;5074143;28;20391;-52
2022/01/10 08:44:21;;;;;;;24.88;15.38;;;;;;;-0.10;100.00;101939.28;5073815;28;20043;-52
2022/01/10 08:46:49;;;;;;;26.58;16.25;;;;;;;-0.06;100.00;101945.31;5073118;28;20045;-51
2022/01/10 08:49:17;;;;;;;27.40;16.55;;;;;;;-0.01;100.00;101948.75;5070300;28;20040;-52
2022/01/10 08:51:46;;;;;;;29.40;15.95;;;;;;;-0.02;100.00;101953.03;5071945;28;20047;-52
2022/01/10 08:54:15;;;;;;;31.25;17.70;;;;;;;0.04;100.00;101962.53;5072440;28;20139;-53
2022/01/10 08:56:44;;;;;;;27.48;16.30;;;;;;;0.09;100.00;101957.34;5070489;28;20055;-52
2022/01/10 08:59:12;;;;;;;27.95;16.60;;;;;;;0.11;100.00;101966.81;5068096;28;20451;-52
2022/01/10 09:01:42;;;;;;;31.95;17.23;;;;;;;0.25;100.00;101965.91;5073313;28;20499;-51
2022/01/10 09:04:15;;;;;;;30.40;17.67;;;;;;;0.26;100.00;101971.06;5073322;28;20503;-54
2022/01/10 09:06:45;;;;;;;30.23;17.80;;;;;;;0.31;100.00;101984.88;5073368;28;20068;-52
2022/01/10 09:09:15;;;;;;;32.10;17.02;;;;;;;0.30;100.00;101988.31;5072065;28;20432;-52
2022/01/10 09:11:44;;;;;;;29.65;17.15;;;;;;;0.32;100.00;101981.38;5073517;28;20044;-55
2022/01/10 09:14:12;;;;;;;27.80;17.50;;;;;;;0.39;100.00;101986.53;5073405;28;20040;-53
2022/01/10 09:16:40;;;;;;;31.80;18.70;;;;;;;0.42;100.00;101992.56;5073372;28;20089;-52
2022/01/10 09:19:08;;;;;;;30.45;17.25;;;;;;;0.47;100.00;102000.31;5073170;28;20056;-54
2022/01/10 09:21:37;;;;;;;26.25;18.13;;;;;;;0.49;100.00;101996.84;5070284;28;20044;-54
2022/01/10 09:24:06;;;;;;;35.47;18.75;;;;;;;0.50;100.00;102006.34;5069527;28;20053;-54
2022/01/10 09:26:36;;;;;;;31.40;18.58;;;;;;;0.58;100.00;102010.63;5073034;28;20047;-52
2022/01/10 09:29:04;;;;;;;38.00;19.80;;;;;;;0.62;100.00;102013.19;5072362;28;20105;-55
2022/01/10 09:31:33;;;;;;;33.05;19.95;;;;;;;0.68;100.00;102020.06;5067804;28;20399;-53
2022/01/10 09:34:02;;;;;;;32.45;19.60;;;;;;;0.76;100.00;102022.59;5070783;28;20040;-53
2022/01/10 09:36:34;;;;;;;37.85;21.13;;;;;;;0.84;100.00;102031.19;5069169;28;20044;-55
2022/01/10 09:39:03;;;;;;;33.15;19.50;;;;;;;0.94;100.00;102038.06;5070505;28;20387;-54
2022/01/10 09:41:31;;;;;;;32.70;19.05;;;;;;;1.05;100.00;102040.59;5068886;28;20131;-53
2022/01/10 09:44:04;;;;;;;34.85;20.27;;;;;;;1.18;100.00;102042.19;5068625;28;20045;-53
2022/01/10 09:46:33;;;;;;;34.50;19.77;;;;;;;1.32;100.00;102042.13;5069239;28;20075;-53
2022/01/10 09:49:03;;;;;;;37.00;22.45;;;;;;;1.44;100.00;102043.75;5062125;28;20549;-52
2022/01/10 09:51:32;;;;;;;38.85;23.83;;;;;;;2.10;100.00;102047.50;5069202;28;20049;-53
2022/01/10 09:54:03;;;;;;;33.67;21.35;;;;;;;2.13;100.00;102050.03;5062440;28;20487;-51
2022/01/10 09:56:37;;;;;;;31.42;19.88;;;;;;;2.17;100.00;102066.47;5069305;28;20045;-53
2022/01/10 09:59:08;;;;;;;35.90;19.70;;;;;;;2.22;100.00;102069.00;5069150;28;20105;-54
2022/01/10 10:01:36;;;;;;;33.58;20.20;;;;;;;2.25;100.00;102069.84;5071634;28;20048;-53
2022/01/10 10:04:05;;;;;;;32.10;19.05;;;;;;;2.29;100.00;102076.72;5071502;28;20078;-50
2022/01/10 10:06:34;;;;;;;33.10;20.00;;;;;;;2.24;100.00;102077.63;5071612;28;20048;-54
2022/01/10 10:09:05;;;;;;;31.05;19.45;;;;;;;2.22;100.00;102079.38;5070102;28;20061;-54
2022/01/10 10:11:39;;;;;;;36.63;21.17;;;;;;;2.29;100.00;102081.03;5071311;28;20040;-54
2022/01/10 10:14:10;;;;;;;38.30;19.65;;;;;;;2.54;100.00;102079.88;5071553;28;20083;-54
2022/01/10 10:16:46;;;;;;;32.53;19.80;;;;;;;2.79;100.00;102087.34;5071813;28;20036;-53
2022/01/10 10:19:15;;;;;;;36.75;20.08;;;;;;;3.06;100.00;102087.03;5071591;28;20053;-54
2022/01/10 10:21:43;;;;;;;30.27;19.70;;;;;;;3.21;100.00;102089.41;5071461;28;20041;-54
2022/01/10 10:24:11;;;;;;;33.78;19.58;;;;;;;3.31;100.00;102093.59;5071436;28;20048;-55
2022/01/10 10:26:40;;;;;;;27.52;17.77;;;;;;;3.32;100.00;102104.84;5071110;28;20105;-51
2022/01/10 10:29:13;;;;;;;30.65;18.33;;;;;;;3.27;100.00;102101.47;5071332;28;20530;-52
2022/01/10 10:31:45;;;;;;;30.35;17.83;;;;;;;3.09;100.00;102113.81;5076424;28;20133;-53
2022/01/10 10:34:19;;;;;;;37.42;19.15;;;;;;;3.15;100.00;102107.69;5091535;28;20117;-52
2022/01/10 10:37:00;;;;;;;31.92;18.60;;;;;;;3.34;100.00;102110.88;5091557;28;20123;-52
2022/01/10 10:39:30;;;;;;;35.33;18.65;;;;;;;3.45;100.00;102119.41;5092066;28;20498;-52
2022/01/10 10:42:03;;;;;;;32.13;18.95;;;;;;;3.60;100.00;102112.22;5094694;28;20051;-52
2022/01/10 10:44:33;;;;;;;35.40;18.10;;;;;;;3.61;100.00;102130.41;5095757;28;20047;-53
2022/01/10 10:47:03;;;;;;;28.35;18.23;;;;;;;3.52;100.00;102131.44;5095373;28;20040;-51
2022/01/10 10:49:36;;;;;;;29.75;17.30;;;;;;;3.58;100.00;102138.28;5095407;28;20052;-54
2022/01/10 10:52:07;;;;;;;30.45;18.13;;;;;;;3.58;100.00;102150.44;5095482;28;20525;-51
2022/01/10 10:54:36;;;;;;;35.33;18.55;;;;;;;3.64;100.00;102139.91;5095427;28;20048;-53
2022/01/10 10:57:07;;;;;;;34.40;18.55;;;;;;;3.78;100.00;102137.13;5095518;28;20056;-52
2022/01/10 10:59:43;;;;;;;34.78;19.23;;;;;;;3.93;100.00;102141.19;5093915;28;20052;-56
2022/01/10 11:02:13;;;;;;;32.63;18.85;;;;;;;3.95;100.00;102147.25;5095167;28;20076;-54
2022/01/10 11:04:42;;;;;;;33.92;17.58;;;;;;;3.87;100.00;102147.34;5095296;28;20048;-54
2022/01/10 11:07:10;;;;;;;36.13;18.83;;;;;;;3.87;100.00;102152.56;5075344;28;20059;-53
2022/01/10 11:09:59;;;;;;;27.42;17.92;;;;;;;4.07;100.00;102149.63;5074780;28;20048;-57
2022/01/10 11:12:28;;;;;;;40.10;18.65;;;;;;;4.16;100.00;102153.81;5074787;28;20391;-54
2022/01/10 11:14:59;;;;;;;30.50;18.33;;;;;;;4.23;100.00;102151.09;5074708;28;20052;-55
2022/01/10 11:17:28;;;;;;;34.63;18.00;;;;;;;4.26;100.00;102159.75;5074626;28;20058;-52
2022/01/10 11:20:11;;;;;;;30.30;16.58;;;;;;;4.22;100.00;102162.38;5074839;28;20513;-57
2022/01/10 11:22:41;;;;;;;32.22;18.02;;;;;;;4.28;100.00;102164.06;5074555;28;20040;-57